GCC Virtual Airport Information Service

Chhatrapati Shivaji International Airport

ICAO: VABB Country: IN
Latitude: 19.0887 Longitude: 72.8679
Latest Arrival : KAC5301 (OKBK-VABB) Latest Departure : CH1263 (VABB-OERK)


WX CaptureLIVE
Data provided by noaa.gov | Fetched at 07:06:15

METAR : VABB 270630Z 26009KT 2200 FU NSC 28/15 Q1013 NOSIG

TAF : VABB 270500Z 2706/2812 29010KT 2500 FU NSC BECMG 2708/2710 3000 FU BECMG 2713/2715 33005KT BECMG 2718/2720 03005KT 2500 HZ FEW100 TEMPO 2801/2804 1500 HZ BECMG 2806/2808 27010KT 3000 FU NSC


Runway Data for VABB
Data provided by openaviationdata.com

Runway ID Mag Var Hdg Length Elevation Surface ILS Freq ILS Id ILS Slope
9 -1 91° 11337 ft 37 ft Asphalt 109.5 IBOM 3
14 -1 136° 9622 ft 37 ft Asphalt 110.1 IBBY 3
27 -1 271° 11337 ft 37 ft Asphalt 110.3 ISCZ 3
32 -1 316° 9622 ft 37 ft Asphalt -- -- --

Chhatrapati Shivaji International Airport, IN
Use only for reference purposes



Not for navigational purposes.